createdAt,value
2017-11-16T18:43:38.763Z,1016.39
2017-11-16T18:44:38.780Z,1016.39
2017-11-16T18:45:38.795Z,1016.34
2017-11-16T18:46:38.811Z,1016.35
2017-11-16T18:47:38.826Z,1016.35
2017-11-16T18:48:38.852Z,1016.38
2017-11-16T18:49:38.865Z,1016.37
2017-11-16T18:50:38.880Z,1016.36
2017-11-16T18:51:38.899Z,1016.33
2017-11-16T18:52:38.917Z,1016.37
2017-11-16T18:53:38.935Z,1016.34
2017-11-16T18:54:38.955Z,1016.35
2017-11-16T18:55:38.986Z,1016.32
2017-11-16T18:56:38.993Z,1016.39
2017-11-16T18:57:39.011Z,1016.36
2017-11-16T18:58:39.032Z,1016.37
2017-11-16T18:59:39.050Z,1016.37
2017-11-16T19:00:39.069Z,1016.36
2017-11-16T19:01:39.090Z,1016.41
2017-11-16T19:02:39.110Z,1016.50
2017-11-16T19:03:39.135Z,1016.52
2017-11-16T19:04:39.148Z,1016.53
2017-11-16T19:05:39.168Z,1016.54
2017-11-16T19:06:39.188Z,1016.46
2017-11-16T19:07:39.207Z,1016.47
2017-11-16T19:08:39.227Z,1016.43
2017-11-16T19:09:39.248Z,1016.42
2017-11-16T19:10:39.267Z,1016.41
2017-11-16T19:11:39.287Z,1016.36
2017-11-16T19:12:39.305Z,1016.36
2017-11-16T19:13:39.326Z,1016.37
2017-11-16T19:14:39.345Z,1016.45
2017-11-16T19:15:39.365Z,1016.41
2017-11-16T19:16:39.384Z,1016.46
2017-11-16T19:17:39.405Z,1016.45
2017-11-16T19:18:39.426Z,1016.51
2017-11-16T19:19:39.444Z,1016.47
2017-11-16T19:20:39.466Z,1016.46
2017-11-16T19:21:39.485Z,1016.41
2017-11-16T19:22:39.506Z,1016.39
2017-11-16T19:23:39.525Z,1016.43
2017-11-16T19:24:39.544Z,1016.38
2017-11-16T19:25:39.564Z,1016.39
2017-11-16T19:26:39.588Z,1016.44
2017-11-16T19:27:39.611Z,1016.42
2017-11-16T19:28:39.624Z,1016.41
2017-11-16T19:29:39.643Z,1016.45
2017-11-16T19:30:39.666Z,1016.46
2017-11-16T19:31:39.684Z,1016.45
2017-11-16T19:32:39.703Z,1016.44
2017-11-16T19:33:39.725Z,1016.45
2017-11-16T19:34:39.796Z,1016.44
2017-11-16T19:35:39.774Z,1016.51
2017-11-16T19:36:39.782Z,1016.56
2017-11-16T19:37:39.804Z,1016.56
2017-11-16T19:38:39.822Z,1016.63
2017-11-16T19:39:39.853Z,1016.61
2017-11-16T19:40:39.962Z,1016.63
2017-11-16T19:41:39.884Z,1016.64
2017-11-16T19:42:39.904Z,1016.65
2017-11-16T19:43:39.925Z,1016.62
2017-11-16T19:44:39.942Z,1016.61
2017-11-16T19:45:39.962Z,1016.60
2017-11-16T19:46:39.983Z,1016.63
2017-11-16T19:47:40.001Z,1016.61
2017-11-16T19:48:40.022Z,1016.59
2017-11-16T19:49:40.042Z,1016.60
2017-11-16T19:50:40.062Z,1016.62
2017-11-16T19:51:40.080Z,1016.61
2017-11-16T19:52:40.100Z,1016.62
2017-11-16T19:53:40.122Z,1016.61
2017-11-16T19:54:40.141Z,1016.62
2017-11-16T19:55:40.162Z,1016.65
2017-11-16T19:56:40.181Z,1016.59
2017-11-16T19:57:40.201Z,1016.63
2017-11-16T19:58:40.224Z,1016.62
2017-11-16T19:59:40.239Z,1016.62
2017-11-16T20:00:40.259Z,1016.68
2017-11-16T20:01:40.281Z,1016.66
2017-11-16T20:02:40.350Z,1016.61
2017-11-16T20:03:40.320Z,1016.64
2017-11-16T20:04:40.339Z,1016.63
2017-11-16T20:05:40.360Z,1016.64
2017-11-16T20:06:40.381Z,1016.60
2017-11-16T20:07:40.398Z,1016.64
2017-11-16T20:08:40.468Z,1016.61
2017-11-16T20:09:40.440Z,1016.57
2017-11-16T20:10:40.460Z,1016.59
2017-11-16T20:11:40.481Z,1016.61
2017-11-16T20:12:40.501Z,1016.57
2017-11-16T20:13:40.517Z,1016.61
2017-11-16T20:14:40.538Z,1016.56
2017-11-16T20:15:40.558Z,1016.58
2017-11-16T20:16:40.577Z,1016.64
2017-11-16T20:17:40.597Z,1016.57
2017-11-16T20:18:40.617Z,1016.55
2017-11-16T20:19:40.688Z,1016.63
2017-11-16T20:20:40.657Z,1016.66
2017-11-16T20:21:40.676Z,1016.69
2017-11-16T20:22:40.703Z,1016.71
2017-11-16T20:23:40.715Z,1016.70
2017-11-16T20:24:40.736Z,1016.67
2017-11-16T20:25:40.757Z,1016.65
2017-11-16T20:26:40.776Z,1016.63
2017-11-16T20:27:40.797Z,1016.63
2017-11-16T20:28:40.813Z,1016.58
2017-11-16T20:29:40.840Z,1016.65
2017-11-16T20:30:40.855Z,1016.65
2017-11-16T20:31:40.928Z,1016.66
2017-11-16T20:32:40.893Z,1016.66
2017-11-16T20:33:40.922Z,1016.66
2017-11-16T20:34:40.932Z,1016.66
2017-11-16T20:35:40.952Z,1016.69
2017-11-16T20:36:41.023Z,1016.64
2017-11-16T20:37:40.993Z,1016.65
2017-11-16T20:38:41.013Z,1016.60
2017-11-16T20:39:41.030Z,1016.67
2017-11-16T20:40:41.051Z,1016.61
2017-11-16T20:41:41.070Z,1016.61
2017-11-16T20:42:41.091Z,1016.62
2017-11-16T20:43:41.111Z,1016.59
2017-11-16T20:44:41.130Z,1016.61
2017-11-16T20:45:41.150Z,1016.63
2017-11-16T20:46:41.220Z,1016.67
2017-11-16T20:47:41.189Z,1016.70
2017-11-16T20:48:41.208Z,1016.75
2017-11-16T20:49:41.229Z,1016.77
2017-11-16T20:50:41.254Z,1016.77
2017-11-16T20:51:41.271Z,1016.79
2017-11-16T20:52:41.287Z,1016.80
2017-11-16T20:53:41.309Z,1016.79
2017-11-16T20:54:41.329Z,1016.82
2017-11-16T20:55:41.346Z,1016.80
2017-11-16T20:56:41.366Z,1016.79
2017-11-16T20:57:41.386Z,1016.83
2017-11-16T20:58:41.407Z,1016.84
2017-11-16T20:59:41.428Z,1016.85
2017-11-16T21:00:41.445Z,1016.85
2017-11-16T21:01:41.468Z,1016.78
2017-11-16T21:02:41.485Z,1016.76
2017-11-16T21:03:41.505Z,1016.79
2017-11-16T21:04:41.535Z,1016.73
2017-11-16T21:05:41.544Z,1016.78
2017-11-16T21:06:41.570Z,1016.79
2017-11-16T21:07:41.588Z,1016.76
2017-11-16T21:08:41.604Z,1016.78
2017-11-16T21:09:41.623Z,1016.77
2017-11-16T21:10:41.644Z,1016.79
2017-11-16T21:11:41.664Z,1016.82
2017-11-16T21:12:41.692Z,1016.83
2017-11-16T21:13:41.703Z,1016.87
2017-11-16T21:14:41.774Z,1016.89
2017-11-16T21:15:41.743Z,1016.86
2017-11-16T21:16:41.762Z,1016.91
2017-11-16T21:17:41.782Z,1016.92
2017-11-16T21:18:41.803Z,1016.92
2017-11-16T21:19:41.825Z,1016.94
2017-11-16T21:20:41.841Z,1016.93
2017-11-16T21:21:41.911Z,1016.92
2017-11-16T21:22:41.880Z,1016.91
2017-11-16T21:23:41.901Z,1016.94
2017-11-16T21:24:41.924Z,1016.91
2017-11-16T21:25:41.941Z,1016.93
2017-11-16T21:26:41.959Z,1016.89
2017-11-16T21:27:41.978Z,1016.88
2017-11-16T21:28:41.999Z,1016.91
2017-11-16T21:29:42.018Z,1016.88
2017-11-16T21:30:42.038Z,1016.89
2017-11-16T21:31:42.056Z,1016.92
2017-11-16T21:32:42.075Z,1016.94
2017-11-16T21:33:42.096Z,1016.91
2017-11-16T21:34:42.116Z,1016.91
2017-11-16T21:35:42.134Z,1016.88
2017-11-16T21:36:42.154Z,1016.84
2017-11-16T21:37:42.174Z,1016.91
2017-11-16T21:38:42.194Z,1016.91
2017-11-16T21:39:42.213Z,1016.87
2017-11-16T21:40:42.234Z,1016.90
2017-11-16T21:41:42.254Z,1016.88
2017-11-16T21:42:42.273Z,1016.87
2017-11-16T21:43:42.292Z,1016.90
2017-11-16T21:44:42.319Z,1016.87
2017-11-16T21:45:42.332Z,1016.89
2017-11-16T21:46:42.353Z,1016.89
2017-11-16T21:47:42.370Z,1016.95
2017-11-16T21:48:42.391Z,1016.93
2017-11-16T21:49:42.410Z,1016.88
2017-11-16T21:50:42.431Z,1016.90
2017-11-16T21:51:42.449Z,1016.91
2017-11-16T21:52:42.471Z,1016.89
2017-11-16T21:53:42.489Z,1016.93
2017-11-16T21:54:42.511Z,1016.95
2017-11-16T21:55:42.528Z,1016.97
2017-11-16T21:56:42.598Z,1016.93
2017-11-16T21:57:42.569Z,1016.98
2017-11-16T21:58:42.590Z,1016.97
2017-11-16T21:59:42.612Z,1016.92
2017-11-16T22:00:42.631Z,1016.90
2017-11-16T22:01:42.647Z,1016.92
2017-11-16T22:02:42.667Z,1016.89
2017-11-16T22:03:42.687Z,1016.89
2017-11-16T22:04:42.707Z,1016.85
2017-11-16T22:05:42.728Z,1016.89
2017-11-16T22:06:42.746Z,1016.85
2017-11-16T22:07:42.772Z,1016.85
2017-11-16T22:08:42.786Z,1016.87
2017-11-16T22:09:42.805Z,1016.88
2017-11-16T22:10:42.877Z,1016.90
2017-11-16T22:11:42.846Z,1016.97
2017-11-16T22:12:42.866Z,1016.95
2017-11-16T22:13:42.886Z,1016.96
2017-11-16T22:14:42.904Z,1017.01
2017-11-16T22:15:42.932Z,1016.90
2017-11-16T22:16:42.949Z,1016.93
2017-11-16T22:17:42.964Z,1016.93
2017-11-16T22:18:42.986Z,1016.96
2017-11-16T22:19:43.003Z,1016.94
2017-11-16T22:20:43.025Z,1016.95
2017-11-16T22:21:43.043Z,1016.94
2017-11-16T22:22:43.065Z,1016.88
2017-11-16T22:23:43.082Z,1016.92
2017-11-16T22:24:43.102Z,1016.94
2017-11-16T22:25:43.123Z,1016.89
2017-11-16T22:26:43.145Z,1016.89
2017-11-16T22:27:43.163Z,1016.87
2017-11-16T22:28:43.185Z,1016.90
2017-11-16T22:29:43.205Z,1016.83
2017-11-16T22:30:43.223Z,1016.89
2017-11-16T22:31:43.242Z,1016.89
2017-11-16T22:32:43.261Z,1016.87
2017-11-16T22:33:43.282Z,1016.84
2017-11-16T22:34:43.301Z,1016.83
2017-11-16T22:35:43.321Z,1016.91
2017-11-16T22:36:43.342Z,1016.85
2017-11-16T22:37:43.361Z,1016.81
2017-11-16T22:38:43.381Z,1016.86
2017-11-16T22:39:43.402Z,1016.86
2017-11-16T22:40:43.424Z,1016.87
2017-11-16T22:41:43.441Z,1016.87
2017-11-16T22:42:43.462Z,1016.84
2017-11-16T22:43:43.495Z,1016.85
2017-11-16T22:44:43.500Z,1016.86
2017-11-16T22:45:43.520Z,1016.86
2017-11-16T22:46:43.539Z,1016.87
2017-11-16T22:47:43.560Z,1016.87
2017-11-16T22:48:43.579Z,1016.88
2017-11-16T22:49:43.600Z,1016.88
2017-11-16T22:50:43.620Z,1016.91
2017-11-16T22:51:43.639Z,1016.90
2017-11-16T22:52:43.659Z,1016.89
2017-11-16T22:53:43.680Z,1016.88
2017-11-16T22:54:43.700Z,1016.91
2017-11-16T22:55:43.718Z,1016.90
2017-11-16T22:56:43.738Z,1016.91
2017-11-16T22:57:43.759Z,1016.86
2017-11-16T22:58:43.779Z,1016.87
2017-11-16T22:59:43.796Z,1016.85
2017-11-16T23:00:43.818Z,1016.89
2017-11-16T23:01:43.846Z,1016.89
2017-11-16T23:02:43.857Z,1016.90
2017-11-16T23:03:43.877Z,1016.91
2017-11-16T23:04:43.896Z,1016.86
2017-11-16T23:05:43.919Z,1016.88
2017-11-16T23:06:43.936Z,1016.89
2017-11-16T23:07:43.956Z,1016.91
2017-11-16T23:08:43.977Z,1016.89
2017-11-16T23:09:43.996Z,1016.92
2017-11-16T23:10:44.017Z,1016.89
2017-11-16T23:11:44.036Z,1016.94
2017-11-16T23:12:44.061Z,1016.90
2017-11-16T23:13:44.076Z,1016.94
2017-11-16T23:14:44.097Z,1016.93
2017-11-16T23:15:44.120Z,1016.91
2017-11-16T23:16:44.134Z,1016.90
2017-11-16T23:17:44.156Z,1016.94
2017-11-16T23:18:44.176Z,1016.96
2017-11-16T23:19:44.194Z,1016.93
2017-11-16T23:20:44.215Z,1016.93
2017-11-16T23:21:44.233Z,1016.95
2017-11-16T23:22:44.254Z,1016.93
2017-11-16T23:23:44.272Z,1016.96
2017-11-16T23:24:44.293Z,1016.95
2017-11-16T23:25:44.314Z,1016.94
2017-11-16T23:26:44.332Z,1016.93
2017-11-16T23:27:44.352Z,1016.97
2017-11-16T23:28:44.373Z,1016.96
2017-11-16T23:29:44.392Z,1016.98
2017-11-16T23:30:44.418Z,1016.95
2017-11-16T23:31:44.433Z,1016.95
2017-11-16T23:32:44.451Z,1016.99
2017-11-16T23:33:44.472Z,1016.96
2017-11-16T23:34:44.491Z,1016.90
2017-11-16T23:35:44.561Z,1016.91
2017-11-16T23:36:44.531Z,1016.93
2017-11-16T23:37:44.550Z,1016.94
2017-11-16T23:38:44.570Z,1016.89
2017-11-16T23:39:44.590Z,1016.90
2017-11-16T23:40:44.609Z,1016.92
2017-11-16T23:41:44.629Z,1016.91
2017-11-16T23:42:44.649Z,1016.94
2017-11-16T23:43:44.668Z,1016.95
2017-11-16T23:44:44.691Z,1016.94
2017-11-16T23:45:44.714Z,1016.98
2017-11-16T23:46:44.728Z,1016.96
2017-11-16T23:47:44.748Z,1016.97
2017-11-16T23:48:44.767Z,1016.96
2017-11-16T23:49:44.794Z,1016.98
2017-11-16T23:50:44.958Z,1017.02
2017-11-16T23:51:44.826Z,1017.02
2017-11-16T23:52:44.846Z,1017.01
2017-11-16T23:53:44.866Z,1017.05
2017-11-16T23:54:44.887Z,1017.03
2017-11-16T23:55:44.905Z,1017.03
2017-11-16T23:56:44.927Z,1017.00
2017-11-16T23:57:44.945Z,1016.99
2017-11-16T23:58:44.965Z,1017.05
2017-11-16T23:59:44.985Z,1017.02
